Portada
METAR-TAF:

METAR-TAF

Aeropuertos :

Madrid-Torrejón, España

Base Aérea de Torrejón / Aeropuerto de Madrid-Torrejón

latitud: 40-29N, longitud: 003-27W, altitud: 607 m

Observación

El informe se hizo hace 21 minutos, a las 11:00 UTC
Viento calma
Temperatura 14°C
Humedad 38%
Presión 1020 hPa
Visibilidad 10 km o más
sin nubes por debajo de 1500 m y sin presencia de cumulonimbus.

METAR: LETO 231100Z 00000KT CAVOK 14/M00 Q1020 NOSIG

Hora: 12:21 (11:21 UTC)

Pronóstico

El informe se hizo hace 6 horas y 21 minutos, a las 05:00 UTC
Pronóstico válido del 23 a las 06 UTC al 24 a las 06 UTC
Viento 5 kt con dirección variable
Visibilidad 10 km o más
sin nubes por debajo de 1500 m y sin presencia de cumulonimbus.
Probabilidad 30% :
Temporalmente
del 23 a las 12 UTC al 23 a las 17 UTC
Viento 10 kt del suroeste

TAF: LETO 230500Z 2306/2406 VRB05KT CAVOK TX18/2315Z TN04/2306Z PROB30 TEMPO 2312/2317 23010KT

Observaciones y pronósticos meteorológicos de más de 4000 aeropuertos (mensajes METAR y TAF).

Los puntos amarillos y rojos representan las estaciones disponibles.

Ponga el ratón en el punto deseado para ver el nombre de la estación.

Haga clic para ver las observaciones y los pronósticos meteorológicos.

Para cambiar el mapa : haga clic en los botones verdes con una cruz de color negro para hacer un zoom, en el botón verde con un guión para alejar o en las flechas verdes para mapas adyacentes.


METAR-TAF: